LFSX weather

Luxeuil-Saint-Sauveur (BA 116) Air Base
Luxeuil/Saint-Sauveur, Franche-Comté, France

Public forecast

Using degrees Celsius for public forecast. Weather courtesy of forecast.io.

METAR (pilot weather report)

Retrieved 2019/09/16 03:30 UTC (0 seconds ago):

LFSX 160330Z AUTO 07003KT CAVOK 15/14 Q1020

TAF (pilot weather forecast)

Forecast is more than 6 hours old.

Retrieved 2019/09/15 15:57 UTC (11 hours ago):

TAF LFSX 151546Z 1515/1615 CNL